createdAt,value
2018-05-25T00:01:36.495Z,8.50
2018-05-25T00:04:03.168Z,7.50
2018-05-25T00:06:29.820Z,8.77
2018-05-25T00:08:56.510Z,10.40
2018-05-25T00:11:23.150Z,7.60
2018-05-25T00:16:33.487Z,8.20
2018-05-25T00:19:00.118Z,7.87
2018-05-25T00:21:26.778Z,7.73
2018-05-25T00:23:53.465Z,7.63
2018-05-25T00:26:20.108Z,9.13
2018-05-25T00:28:46.766Z,8.00
2018-05-25T00:31:13.390Z,7.77
2018-05-25T00:33:40.036Z,7.87
2018-05-25T00:36:06.695Z,7.40
2018-05-25T00:38:33.322Z,8.43
2018-05-25T00:40:59.957Z,7.87
2018-05-25T00:43:26.663Z,8.57
2018-05-25T00:45:53.297Z,7.10
2018-05-25T00:48:19.955Z,7.80
2018-05-25T00:50:46.590Z,9.03
2018-05-25T00:53:13.249Z,7.73
2018-05-25T00:55:39.894Z,7.43
2018-05-25T00:58:06.530Z,7.30
2018-05-25T01:00:33.189Z,8.30
2018-05-25T01:02:59.880Z,9.33
2018-05-25T01:05:26.541Z,8.83
2018-05-25T01:07:53.184Z,9.03
2018-05-25T01:10:20.201Z,9.23
2018-05-25T01:12:46.846Z,8.57
2018-05-25T01:15:13.476Z,8.50
2018-05-25T01:17:40.166Z,8.63
2018-05-25T01:20:06.825Z,9.10
2018-05-25T01:22:33.509Z,7.57
2018-05-25T01:25:00.176Z,8.23
2018-05-25T01:27:26.803Z,8.00
2018-05-25T01:29:53.463Z,9.43
2018-05-25T01:32:20.166Z,7.07
2018-05-25T01:34:46.820Z,7.23
2018-05-25T01:37:13.508Z,8.77
2018-05-25T01:39:40.277Z,8.40
2018-05-25T01:42:06.917Z,9.97
2018-05-25T01:44:33.545Z,7.50
2018-05-25T01:47:00.211Z,8.53
2018-05-25T01:49:26.872Z,7.93
2018-05-25T01:51:53.508Z,7.70
2018-05-25T01:54:20.152Z,8.07
2018-05-25T01:56:46.847Z,8.57
2018-05-25T01:59:13.522Z,8.60
2018-05-25T02:01:40.213Z,8.33
2018-05-25T02:04:06.867Z,8.70
2018-05-25T02:06:33.513Z,10.33
2018-05-25T02:09:00.199Z,8.57
2018-05-25T02:11:26.817Z,8.67
2018-05-25T02:13:53.469Z,8.30
2018-05-25T02:16:20.122Z,8.60
2018-05-25T02:18:46.799Z,8.30
2018-05-25T02:21:13.458Z,8.83
2018-05-25T02:23:40.159Z,8.60
2018-05-25T02:26:06.809Z,9.03
2018-05-25T02:28:33.464Z,8.07
2018-05-25T02:31:00.088Z,8.20
2018-05-25T02:33:26.725Z,9.13
2018-05-25T02:35:53.383Z,9.07
2018-05-25T02:38:20.001Z,8.50
2018-05-25T02:40:46.666Z,8.73
2018-05-25T02:43:13.307Z,8.43
2018-05-25T02:45:39.944Z,8.97
2018-05-25T02:48:06.622Z,9.30
2018-05-25T02:50:33.324Z,8.87
2018-05-25T02:52:59.952Z,8.53
2018-05-25T02:55:26.583Z,8.90
2018-05-25T02:57:53.241Z,8.33
2018-05-25T03:00:19.899Z,7.90
2018-05-25T03:02:46.544Z,8.40
2018-05-25T03:05:13.197Z,8.57
2018-05-25T03:07:39.829Z,8.90
2018-05-25T03:10:06.490Z,10.70
2018-05-25T03:12:33.134Z,10.10
2018-05-25T03:14:59.818Z,8.90
2018-05-25T03:17:26.484Z,8.30
2018-05-25T03:19:53.115Z,9.57
2018-05-25T03:22:19.741Z,8.60
2018-05-25T03:24:46.407Z,8.50
2018-05-25T03:27:13.033Z,8.37
2018-05-25T03:29:39.714Z,8.37
2018-05-25T03:32:06.545Z,9.57
2018-05-25T03:34:33.174Z,9.33
2018-05-25T03:36:59.823Z,8.67
2018-05-25T03:39:26.522Z,9.40
2018-05-25T03:41:53.175Z,8.50
2018-05-25T03:44:19.817Z,8.97
2018-05-25T03:46:46.474Z,9.27
2018-05-25T03:49:13.122Z,8.63
2018-05-25T03:51:39.775Z,13.50
2018-05-25T03:54:06.405Z,8.80
2018-05-25T03:56:33.075Z,8.80
2018-05-25T03:59:05.496Z,8.87
2018-05-25T04:01:38.059Z,9.50
2018-05-25T04:04:04.676Z,9.83
2018-05-25T04:06:31.361Z,8.83
2018-05-25T04:08:58.024Z,12.17
2018-05-25T04:11:24.664Z,9.00
2018-05-25T04:13:51.309Z,10.60
2018-05-25T04:16:17.935Z,9.87
2018-05-25T04:18:44.585Z,9.13
2018-05-25T04:21:11.251Z,10.70
2018-05-25T04:23:37.913Z,10.20
2018-05-25T04:26:04.586Z,10.10
2018-05-25T04:28:31.235Z,10.47
2018-05-25T04:30:57.871Z,10.00
2018-05-25T04:33:24.584Z,11.50
2018-05-25T04:35:51.231Z,12.17
2018-05-25T04:38:17.889Z,12.10
2018-05-25T04:40:44.598Z,11.50
2018-05-25T04:43:11.258Z,11.53
2018-05-25T04:45:37.921Z,11.93
2018-05-25T04:48:04.685Z,12.17
2018-05-25T04:50:31.390Z,10.67
2018-05-25T04:52:58.028Z,10.00
2018-05-25T04:55:24.732Z,10.83
2018-05-25T04:57:51.406Z,9.17
2018-05-25T05:00:18.122Z,9.23
2018-05-25T05:02:44.805Z,8.57
2018-05-25T05:05:11.479Z,9.90
2018-05-25T05:07:38.309Z,8.40
2018-05-25T05:10:05.132Z,7.87
2018-05-25T05:12:31.815Z,7.70
2018-05-25T05:14:58.454Z,7.80
2018-05-25T05:17:25.120Z,8.77
2018-05-25T05:19:51.770Z,7.93
2018-05-25T05:22:18.469Z,7.07
2018-05-25T05:24:45.220Z,6.67
2018-05-25T05:27:11.921Z,7.33
2018-05-25T05:29:38.597Z,7.93
2018-05-25T05:32:05.244Z,8.60
2018-05-25T05:34:31.916Z,7.73
2018-05-25T05:36:58.645Z,7.93
2018-05-25T05:39:25.307Z,8.83
2018-05-25T05:41:51.997Z,7.93
2018-05-25T05:44:18.657Z,7.00
2018-05-25T05:46:45.380Z,6.87
2018-05-25T05:49:12.030Z,6.80
2018-05-25T05:51:38.786Z,8.00
2018-05-25T05:54:05.445Z,7.83
2018-05-25T05:56:32.101Z,6.93
2018-05-25T05:58:58.814Z,7.27
2018-05-25T06:01:25.484Z,7.23
2018-05-25T06:03:52.207Z,7.13
2018-05-25T06:06:18.872Z,8.17
2018-05-25T06:08:45.579Z,7.03
2018-05-25T06:11:12.255Z,6.67
2018-05-25T06:13:38.975Z,6.63
2018-05-25T06:16:05.651Z,7.27
2018-05-25T06:18:32.311Z,7.43
2018-05-25T06:20:59.018Z,7.50
2018-05-25T06:23:25.670Z,7.53
2018-05-25T06:25:52.349Z,8.00
2018-05-25T06:28:19.061Z,11.03
2018-05-25T06:30:45.749Z,8.33
2018-05-25T06:33:12.387Z,8.60
2018-05-25T06:35:39.055Z,12.47
2018-05-25T06:38:05.801Z,14.07
2018-05-25T06:40:32.452Z,14.00
2018-05-25T06:42:59.115Z,12.57
2018-05-25T06:45:25.756Z,11.80
2018-05-25T06:47:52.460Z,12.13
2018-05-25T06:50:19.125Z,10.97
2018-05-25T06:52:45.773Z,9.60
2018-05-25T06:55:12.475Z,14.40
2018-05-25T06:57:39.129Z,15.27
2018-05-25T07:00:05.763Z,14.13
2018-05-25T07:02:32.453Z,13.43
2018-05-25T07:04:59.219Z,15.80
2018-05-25T07:07:25.892Z,15.70
2018-05-25T07:09:52.620Z,14.10
2018-05-25T07:12:19.701Z,13.90
2018-05-25T07:14:46.429Z,15.67
2018-05-25T07:17:13.096Z,14.87
2018-05-25T07:19:39.803Z,15.17
2018-05-25T07:22:06.507Z,12.80
2018-05-25T07:24:33.234Z,13.23
2018-05-25T07:26:59.893Z,12.97
2018-05-25T07:29:26.553Z,13.53
2018-05-25T07:31:53.226Z,11.43
2018-05-25T07:34:19.917Z,13.30
2018-05-25T07:36:46.617Z,12.43
2018-05-25T07:39:13.275Z,14.83
2018-05-25T07:41:39.956Z,14.47
2018-05-25T07:44:06.585Z,11.80
2018-05-25T07:46:33.287Z,14.33
2018-05-25T07:48:59.960Z,12.73
2018-05-25T07:51:26.627Z,11.43
2018-05-25T07:53:53.283Z,11.43
2018-05-25T07:56:19.972Z,12.23
2018-05-25T07:58:46.630Z,12.53
2018-05-25T08:01:13.303Z,12.93
2018-05-25T08:03:39.985Z,15.10
2018-05-25T08:06:06.725Z,14.93
2018-05-25T08:08:33.469Z,14.87
2018-05-25T08:11:00.163Z,15.90
2018-05-25T08:13:26.950Z,15.17
2018-05-25T08:15:53.677Z,14.53
2018-05-25T08:18:20.332Z,15.67
2018-05-25T08:20:47.000Z,12.70
2018-05-25T08:23:13.661Z,15.37
2018-05-25T08:25:40.546Z,15.30
2018-05-25T08:28:07.218Z,15.50
2018-05-25T08:30:33.934Z,15.17
2018-05-25T08:33:00.601Z,15.50
2018-05-25T08:35:27.296Z,15.33
2018-05-25T08:37:53.931Z,14.60
2018-05-25T08:40:20.625Z,12.93
2018-05-25T08:42:47.308Z,13.20
2018-05-25T08:45:13.976Z,14.57
2018-05-25T08:47:40.741Z,14.60
2018-05-25T08:50:07.444Z,13.47
2018-05-25T08:52:34.156Z,14.50
2018-05-25T08:55:00.825Z,16.93
2018-05-25T08:57:27.498Z,10.50
2018-05-25T08:59:54.180Z,15.53
2018-05-25T09:02:20.898Z,13.83
2018-05-25T09:04:47.573Z,14.67
2018-05-25T09:07:14.319Z,13.17
2018-05-25T09:09:41.355Z,15.00
2018-05-25T09:12:08.013Z,14.43
2018-05-25T09:14:34.673Z,14.63
2018-05-25T09:17:01.400Z,16.10
2018-05-25T09:19:28.133Z,16.43
2018-05-25T09:21:54.992Z,13.90
2018-05-25T09:24:21.721Z,13.80
2018-05-25T09:26:48.464Z,14.40
2018-05-25T09:29:15.427Z,15.70
2018-05-25T09:31:42.850Z,14.93
2018-05-25T09:34:09.554Z,13.20
2018-05-25T09:36:36.334Z,13.10
2018-05-25T09:39:03.011Z,12.13
2018-05-25T09:41:29.724Z,11.83
2018-05-25T09:43:57.305Z,14.20
2018-05-25T09:46:24.061Z,15.70
2018-05-25T09:48:50.847Z,14.97
2018-05-25T09:51:17.584Z,14.70
2018-05-25T09:53:44.550Z,15.23
2018-05-25T09:56:11.274Z,13.40
2018-05-25T09:58:37.964Z,10.23
2018-05-25T10:01:04.649Z,12.30
2018-05-25T10:03:31.424Z,10.90
2018-05-25T10:05:58.176Z,9.07
2018-05-25T10:08:24.826Z,9.43
2018-05-25T10:10:51.918Z,10.90
2018-05-25T10:13:18.634Z,10.93
2018-05-25T10:15:45.375Z,11.17
2018-05-25T10:18:12.007Z,9.87
2018-05-25T10:20:38.689Z,10.73
2018-05-25T10:23:05.361Z,8.63
2018-05-25T10:25:32.033Z,9.07
2018-05-25T10:27:58.728Z,7.83
2018-05-25T10:30:25.377Z,10.67
2018-05-25T10:32:52.040Z,11.33
2018-05-25T10:35:18.700Z,11.10
2018-05-25T10:37:45.407Z,9.80
2018-05-25T10:40:12.160Z,9.10
2018-05-25T10:42:38.869Z,8.90
2018-05-25T10:45:05.529Z,8.70
2018-05-25T10:47:32.179Z,8.40
2018-05-25T10:49:58.948Z,8.73
2018-05-25T10:52:25.591Z,7.97
2018-05-25T10:54:52.354Z,6.37
2018-05-25T10:57:19.425Z,7.97
2018-05-25T10:59:46.111Z,7.60
2018-05-25T11:02:12.779Z,6.40
2018-05-25T11:04:39.506Z,6.93
2018-05-25T11:07:06.146Z,6.23
2018-05-25T11:09:32.805Z,6.43
2018-05-25T11:11:59.490Z,6.63
2018-05-25T11:14:26.248Z,6.57
2018-05-25T11:16:52.944Z,6.57
2018-05-25T11:19:19.598Z,5.90
2018-05-25T11:21:46.270Z,7.50
2018-05-25T11:24:12.916Z,7.43
2018-05-25T11:26:39.570Z,6.90
2018-05-25T11:29:06.281Z,7.47
2018-05-25T11:31:33.022Z,6.43
2018-05-25T11:33:59.696Z,6.40
2018-05-25T11:36:26.365Z,7.20
2018-05-25T11:38:53.572Z,6.70
2018-05-25T11:41:20.221Z,6.47
2018-05-25T11:43:46.917Z,6.47
2018-05-25T11:46:13.602Z,7.00
2018-05-25T11:48:40.319Z,6.60
2018-05-25T11:51:06.983Z,6.00
2018-05-25T11:53:33.652Z,6.40
2018-05-25T11:56:00.322Z,6.17
2018-05-25T11:58:26.983Z,6.70
2018-05-25T12:00:53.671Z,5.67
2018-05-25T12:03:20.313Z,5.20
2018-05-25T12:05:46.995Z,6.87
2018-05-25T12:08:13.659Z,6.27
2018-05-25T12:10:40.320Z,6.50
2018-05-25T12:13:06.963Z,6.30
2018-05-25T12:15:33.635Z,5.83
2018-05-25T12:18:00.273Z,6.17
2018-05-25T12:20:26.945Z,6.50
2018-05-25T12:22:53.647Z,5.60
2018-05-25T12:25:20.282Z,6.10
2018-05-25T12:27:46.949Z,5.73
2018-05-25T12:30:13.774Z,5.90
2018-05-25T12:32:40.473Z,6.03
2018-05-25T12:35:07.226Z,5.27
2018-05-25T12:37:33.889Z,5.37
2018-05-25T12:40:00.543Z,5.70
2018-05-25T12:42:29.852Z,5.73
2018-05-25T12:45:06.604Z,6.57
2018-05-25T12:47:36.849Z,6.10
2018-05-25T12:50:06.610Z,6.23
2018-05-25T12:52:35.268Z,6.20
2018-05-25T12:55:01.974Z,6.23
2018-05-25T12:57:28.647Z,6.10
2018-05-25T12:59:58.363Z,6.40
2018-05-25T13:02:25.037Z,6.10
2018-05-25T13:04:51.688Z,6.17
2018-05-25T13:07:18.392Z,5.87
2018-05-25T13:09:45.100Z,5.40
2018-05-25T13:12:11.782Z,5.67
2018-05-25T13:14:38.397Z,5.70
2018-05-25T13:17:05.025Z,5.50
2018-05-25T13:19:31.724Z,5.23
2018-05-25T13:21:58.525Z,5.30
2018-05-25T13:24:25.174Z,4.90
2018-05-25T13:26:51.840Z,5.17
2018-05-25T13:29:18.495Z,5.53
2018-05-25T13:31:45.163Z,5.30
2018-05-25T13:34:11.846Z,5.23
2018-05-25T13:36:38.561Z,5.20
2018-05-25T13:39:05.571Z,5.90
2018-05-25T13:41:32.197Z,5.30
2018-05-25T13:43:58.838Z,6.50
2018-05-25T13:46:25.522Z,4.50
2018-05-25T13:48:52.319Z,4.57
2018-05-25T13:51:18.963Z,5.10
2018-05-25T13:53:45.636Z,5.43
2018-05-25T13:56:12.309Z,4.63
2018-05-25T13:58:38.970Z,5.23
2018-05-25T14:01:05.705Z,4.57
2018-05-25T14:03:32.403Z,4.07
2018-05-25T14:05:59.111Z,4.10
2018-05-25T14:08:25.755Z,4.93
2018-05-25T14:10:52.695Z,4.97
2018-05-25T14:13:19.338Z,4.37
2018-05-25T14:15:46.025Z,4.30
2018-05-25T14:18:12.691Z,4.27
2018-05-25T14:20:39.365Z,4.37
2018-05-25T14:23:06.129Z,3.90
2018-05-25T14:25:32.959Z,4.27
2018-05-25T14:27:59.647Z,3.57
2018-05-25T14:30:26.387Z,3.87
2018-05-25T14:32:53.108Z,4.80
2018-05-25T14:35:19.796Z,6.63
2018-05-25T14:37:46.448Z,3.90
2018-05-25T14:40:13.131Z,4.10
2018-05-25T14:42:39.821Z,3.40
2018-05-25T14:45:06.743Z,4.40
2018-05-25T14:47:33.400Z,4.40
2018-05-25T14:50:00.079Z,4.60
2018-05-25T14:52:26.761Z,5.90
2018-05-25T14:54:53.532Z,4.93
2018-05-25T14:57:20.255Z,5.57
2018-05-25T14:59:47.031Z,5.17
2018-05-25T15:02:13.689Z,5.43
2018-05-25T15:04:40.373Z,5.93
2018-05-25T15:07:07.096Z,5.90
2018-05-25T15:09:33.819Z,6.70
2018-05-25T15:12:00.472Z,7.23
2018-05-25T15:14:27.132Z,5.70
2018-05-25T15:16:53.869Z,5.30
2018-05-25T15:19:20.596Z,6.07
2018-05-25T15:21:47.299Z,6.67
2018-05-25T15:24:14.007Z,6.10
2018-05-25T15:26:40.718Z,6.10
2018-05-25T15:29:07.404Z,5.70
2018-05-25T15:31:34.069Z,6.20
2018-05-25T15:34:00.797Z,6.20
2018-05-25T15:36:27.509Z,5.60
2018-05-25T15:38:54.182Z,5.77
2018-05-25T15:41:20.873Z,5.63
2018-05-25T15:43:47.512Z,5.17
2018-05-25T15:46:14.135Z,5.23
2018-05-25T15:48:40.817Z,6.93
2018-05-25T15:51:07.562Z,7.27
2018-05-25T15:53:34.198Z,10.53
2018-05-25T15:56:00.888Z,8.87
2018-05-25T15:58:27.620Z,8.27
2018-05-25T16:00:54.272Z,8.90
2018-05-25T16:03:20.956Z,8.40
2018-05-25T16:05:47.672Z,10.00
2018-05-25T16:08:14.338Z,9.37
2018-05-25T16:10:41.146Z,9.83
2018-05-25T16:13:08.845Z,9.87
2018-05-25T16:15:35.515Z,9.80
2018-05-25T16:18:02.174Z,10.43
2018-05-25T16:20:28.827Z,9.60
2018-05-25T16:22:55.517Z,9.87
2018-05-25T16:25:22.187Z,10.03
2018-05-25T16:27:48.857Z,10.63
2018-05-25T16:30:15.512Z,9.67
2018-05-25T16:32:42.188Z,8.93
2018-05-25T16:35:08.897Z,9.20
2018-05-25T16:37:35.569Z,8.67
2018-05-25T16:40:02.244Z,8.90
2018-05-25T16:42:28.915Z,9.60
2018-05-25T16:44:55.727Z,9.67
2018-05-25T16:47:22.431Z,9.20
2018-05-25T16:49:49.124Z,9.30
2018-05-25T16:52:15.808Z,8.43
2018-05-25T16:54:42.804Z,8.30
2018-05-25T16:57:09.436Z,9.03
2018-05-25T16:59:36.112Z,9.30
2018-05-25T17:02:02.821Z,8.90
2018-05-25T17:04:29.481Z,9.73
2018-05-25T17:06:56.124Z,8.90
2018-05-25T17:09:22.795Z,9.63
2018-05-25T17:11:49.484Z,8.60
2018-05-25T17:14:16.173Z,8.97
2018-05-25T17:16:42.846Z,8.70
2018-05-25T17:19:09.532Z,8.77
2018-05-25T17:21:36.426Z,9.47
2018-05-25T17:24:03.098Z,7.97
2018-05-25T17:26:29.762Z,7.60
2018-05-25T17:28:56.504Z,7.57
2018-05-25T17:31:24.076Z,7.60
2018-05-25T17:33:50.740Z,8.03
2018-05-25T17:36:17.416Z,7.87
2018-05-25T17:38:44.092Z,7.30
2018-05-25T17:41:10.766Z,7.80
2018-05-25T17:43:37.425Z,8.00
2018-05-25T17:46:04.054Z,7.83
2018-05-25T17:48:30.757Z,8.20
2018-05-25T17:50:58.095Z,7.30
2018-05-25T17:53:24.842Z,8.40
2018-05-25T17:55:51.543Z,7.50
2018-05-25T17:58:18.180Z,7.83
2018-05-25T18:00:44.832Z,8.23
2018-05-25T18:03:11.522Z,8.40
2018-05-25T18:05:38.105Z,8.80
2018-05-25T18:08:04.739Z,8.53
2018-05-25T18:10:31.376Z,8.20
2018-05-25T18:12:58.086Z,8.77
2018-05-25T18:15:24.741Z,8.87
2018-05-25T18:17:51.373Z,7.73
2018-05-25T18:20:18.024Z,8.90
2018-05-25T18:22:44.642Z,7.57
2018-05-25T18:25:11.284Z,7.90
2018-05-25T18:27:38.003Z,7.90
2018-05-25T18:30:04.628Z,8.10
2018-05-25T18:32:31.310Z,7.30
2018-05-25T18:34:57.924Z,8.53
2018-05-25T18:37:24.575Z,7.63
2018-05-25T18:39:51.261Z,7.80
2018-05-25T18:42:17.913Z,8.10
2018-05-25T18:44:44.633Z,9.33
2018-05-25T18:47:11.336Z,8.37
2018-05-25T18:49:37.983Z,8.03
2018-05-25T18:52:05.662Z,8.07
2018-05-25T18:54:32.354Z,8.73
2018-05-25T18:56:59.010Z,8.17
2018-05-25T18:59:25.649Z,8.07
2018-05-25T19:01:52.460Z,8.40
2018-05-25T19:04:19.098Z,8.23
2018-05-25T19:06:45.731Z,7.60
2018-05-25T19:09:12.427Z,8.90
2018-05-25T19:11:39.092Z,7.73
2018-05-25T19:14:05.789Z,7.57
2018-05-25T19:16:32.447Z,7.23
2018-05-25T19:18:59.071Z,7.80
2018-05-25T19:21:25.723Z,8.00
2018-05-25T19:23:52.390Z,8.10
2018-05-25T19:26:20.068Z,9.17
2018-05-25T19:28:46.722Z,9.53
2018-05-25T19:31:13.407Z,9.40
2018-05-25T19:33:40.106Z,9.83
2018-05-25T19:36:09.632Z,8.87
2018-05-25T19:38:36.497Z,8.70
2018-05-25T19:41:03.240Z,8.63
2018-05-25T19:43:29.919Z,8.77
2018-05-25T19:45:56.569Z,8.67
2018-05-25T19:48:23.545Z,8.47
2018-05-25T19:50:50.189Z,8.63
2018-05-25T19:53:16.842Z,8.50
2018-05-25T19:55:43.515Z,9.27
2018-05-25T19:58:10.262Z,10.07
2018-05-25T20:00:36.910Z,9.30
2018-05-25T20:03:03.606Z,7.87
2018-05-25T20:05:30.338Z,9.20
2018-05-25T20:07:58.264Z,8.90
2018-05-25T20:10:25.053Z,8.57
2018-05-25T20:12:51.925Z,8.97
2018-05-25T20:15:20.490Z,9.97
2018-05-25T20:17:47.202Z,9.40
2018-05-25T20:20:14.275Z,8.70
2018-05-25T20:22:40.945Z,9.07
2018-05-25T20:25:07.599Z,9.10
2018-05-25T20:27:34.211Z,9.07
2018-05-25T20:30:00.867Z,9.73
2018-05-25T20:32:27.533Z,9.77
2018-05-25T20:34:54.235Z,9.10
2018-05-25T20:37:20.934Z,9.70
2018-05-25T20:39:47.613Z,10.13
2018-05-25T20:42:14.292Z,9.77
2018-05-25T20:44:41.727Z,10.70
2018-05-25T20:47:08.483Z,11.77
2018-05-25T20:49:35.170Z,10.20
2018-05-25T20:52:01.845Z,10.63
2018-05-25T20:54:28.540Z,10.30
2018-05-25T20:56:55.204Z,9.33
2018-05-25T20:59:21.847Z,9.40
2018-05-25T21:01:48.500Z,9.33
2018-05-25T21:04:15.291Z,9.50
2018-05-25T21:06:42.584Z,8.83
2018-05-25T21:09:09.232Z,9.63
2018-05-25T21:11:35.901Z,8.80
2018-05-25T21:14:02.536Z,7.80
2018-05-25T21:16:29.202Z,8.70
2018-05-25T21:18:55.851Z,8.63
2018-05-25T21:21:22.507Z,9.60
2018-05-25T21:23:49.126Z,9.20
2018-05-25T21:26:15.779Z,8.50
2018-05-25T21:28:42.430Z,10.27
2018-05-25T21:31:09.069Z,11.20
2018-05-25T21:33:35.711Z,9.23
2018-05-25T21:36:02.366Z,8.77
2018-05-25T21:38:29.007Z,9.70
2018-05-25T21:40:55.809Z,9.43
2018-05-25T21:43:22.466Z,8.80
2018-05-25T21:45:49.245Z,9.67
2018-05-25T21:48:15.999Z,9.50
2018-05-25T21:50:42.662Z,9.80
2018-05-25T21:53:09.320Z,9.67
2018-05-25T21:55:36.010Z,9.33
2018-05-25T21:58:02.684Z,9.47
2018-05-25T22:00:29.333Z,9.63
2018-05-25T22:02:55.984Z,9.93
2018-05-25T22:05:22.702Z,8.97
2018-05-25T22:07:49.810Z,9.80
2018-05-25T22:10:16.478Z,10.40
2018-05-25T22:12:43.131Z,10.27
2018-05-25T22:15:09.789Z,10.27
2018-05-25T22:17:36.485Z,9.03
2018-05-25T22:20:03.088Z,9.47
2018-05-25T22:22:29.703Z,9.90
2018-05-25T22:24:56.385Z,9.27
2018-05-25T22:27:23.012Z,9.27
2018-05-25T22:29:49.648Z,8.47
2018-05-25T22:32:16.289Z,9.40
2018-05-25T22:34:42.916Z,9.60
2018-05-25T22:37:09.582Z,9.60
2018-05-25T22:39:36.226Z,9.40
2018-05-25T22:42:02.642Z,8.60
2018-05-25T22:44:35.174Z,7.73
2018-05-25T22:47:07.687Z,8.37
2018-05-25T22:49:40.223Z,8.60
2018-05-25T22:52:12.802Z,8.97
2018-05-25T22:54:42.249Z,8.40
2018-05-25T22:57:08.885Z,8.40
2018-05-25T22:59:35.543Z,8.97
2018-05-25T23:02:02.187Z,8.83
2018-05-25T23:04:28.824Z,8.50
2018-05-25T23:06:55.465Z,8.27
2018-05-25T23:09:22.120Z,8.30
2018-05-25T23:11:48.754Z,8.00
2018-05-25T23:14:15.394Z,8.40
2018-05-25T23:16:43.070Z,10.07
2018-05-25T23:19:09.721Z,8.40
2018-05-25T23:21:36.367Z,8.60
2018-05-25T23:24:03.158Z,8.53
2018-05-25T23:26:29.826Z,9.00
2018-05-25T23:28:56.502Z,8.53
2018-05-25T23:31:23.165Z,8.37
2018-05-25T23:33:49.798Z,8.03
2018-05-25T23:36:16.436Z,9.27
2018-05-25T23:38:43.082Z,8.67
2018-05-25T23:41:09.727Z,8.43
2018-05-25T23:43:36.371Z,8.13
2018-05-25T23:46:03.001Z,8.40
2018-05-25T23:48:29.626Z,7.97
2018-05-25T23:50:56.267Z,7.60
2018-05-25T23:53:22.922Z,8.10
2018-05-25T23:55:49.543Z,8.87
2018-05-25T23:58:16.195Z,9.00
